createdAt,value
2022-08-17T00:00:43.055Z,97101.72
2022-08-17T00:03:10.568Z,97105.16
2022-08-17T00:05:44.691Z,97101.53
2022-08-17T00:08:14.753Z,97105.31
2022-08-17T00:10:44.261Z,97108.78
2022-08-17T00:13:14.587Z,97102.16
2022-08-17T00:15:43.826Z,97097.56
2022-08-17T00:18:57.453Z,97110.00
2022-08-17T00:21:03.077Z,97112.31
2022-08-17T00:23:31.865Z,97118.31
2022-08-17T00:26:00.729Z,97114.44
2022-08-17T00:28:29.229Z,97114.25
2022-08-17T00:31:01.361Z,97112.56
2022-08-17T00:33:31.835Z,97124.50
2022-08-17T00:36:02.299Z,97114.25
2022-08-17T00:38:30.959Z,97104.44
2022-08-17T00:41:01.318Z,97093.16
2022-08-17T00:43:33.259Z,97101.78
2022-08-17T00:46:03.945Z,97106.13
2022-08-17T00:48:32.551Z,97102.88
2022-08-17T00:51:08.414Z,97100.13
2022-08-17T00:53:40.243Z,97108.16
2022-08-17T00:56:12.115Z,97110.78
2022-08-17T00:58:40.231Z,97113.53
2022-08-17T01:01:11.246Z,97116.19
2022-08-17T01:03:40.342Z,97114.59
2022-08-17T01:06:10.297Z,97116.81
2022-08-17T01:08:42.088Z,97119.34
2022-08-17T01:11:10.694Z,97115.81
2022-08-17T01:13:42.232Z,97113.63
2022-08-17T01:16:17.212Z,97109.25
2022-08-17T01:18:48.766Z,97109.19
2022-08-17T01:21:27.834Z,97119.66
2022-08-17T01:23:57.692Z,97120.38
2022-08-17T01:26:26.029Z,97121.63
2022-08-17T01:28:55.979Z,97118.34
2022-08-17T01:31:27.154Z,97120.19
2022-08-17T01:33:55.200Z,97121.56
2022-08-17T01:36:23.531Z,97116.81
2022-08-17T01:38:51.661Z,97114.66
2022-08-17T01:41:23.125Z,97126.06
2022-08-17T01:43:55.202Z,97123.69
2022-08-17T01:46:27.021Z,97128.03
2022-08-17T01:48:57.594Z,97111.84
2022-08-17T01:51:27.166Z,97107.44
2022-08-17T01:53:58.623Z,97118.84
2022-08-17T01:56:30.996Z,97112.72
2022-08-17T01:58:58.945Z,97110.66
2022-08-17T02:01:32.246Z,97111.56
2022-08-17T02:04:01.270Z,97105.66
2022-08-17T02:06:31.454Z,97100.28
2022-08-17T02:09:16.749Z,97108.81
2022-08-17T02:11:47.360Z,97102.22
2022-08-17T02:14:15.682Z,97105.75
2022-08-17T02:16:44.391Z,97100.28
2022-08-17T02:19:16.051Z,97096.56
2022-08-17T02:21:47.396Z,97088.44
2022-08-17T02:24:58.149Z,97098.09
2022-08-17T02:27:11.389Z,97103.72
2022-08-17T02:29:39.776Z,97093.03
2022-08-17T02:32:09.075Z,97085.63
2022-08-17T02:34:37.582Z,97082.00
2022-08-17T02:37:06.319Z,97090.06
2022-08-17T02:39:34.322Z,97088.03
2022-08-17T02:42:03.234Z,97084.34
2022-08-17T02:44:39.468Z,97092.41
2022-08-17T02:47:10.013Z,97088.31
2022-08-17T02:49:38.429Z,97087.28
2022-08-17T02:52:08.683Z,97090.50
2022-08-17T02:54:42.251Z,97086.97
2022-08-17T02:57:11.420Z,97090.75
2022-08-17T02:59:48.355Z,97088.06
2022-08-17T03:02:17.646Z,97085.78
2022-08-17T03:04:45.618Z,97087.06
2022-08-17T03:07:13.800Z,97082.66
2022-08-17T03:09:41.807Z,97083.47
2022-08-17T03:12:12.517Z,97075.50
2022-08-17T03:14:43.214Z,97073.22
2022-08-17T03:17:15.891Z,97067.53
2022-08-17T03:19:45.458Z,97066.97
2022-08-17T03:22:37.197Z,97064.72
2022-08-17T03:25:01.393Z,97071.91
2022-08-17T03:27:30.225Z,97059.03
2022-08-17T03:29:59.416Z,97059.28
2022-08-17T03:32:27.235Z,97063.72
2022-08-17T03:34:59.142Z,97067.34
2022-08-17T03:37:27.053Z,97076.88
2022-08-17T03:39:54.896Z,97072.78
2022-08-17T03:42:32.540Z,97069.59
2022-08-17T03:45:03.425Z,97079.19
2022-08-17T03:47:49.360Z,97067.91
2022-08-17T03:50:35.173Z,97074.81
2022-08-17T03:53:22.800Z,97068.69
2022-08-17T03:56:08.070Z,97067.75
2022-08-17T03:58:37.697Z,97070.91
2022-08-17T04:01:08.007Z,97075.91
2022-08-17T04:03:36.131Z,97075.00
2022-08-17T04:06:04.173Z,97076.81
2022-08-17T04:08:32.368Z,97081.28
2022-08-17T04:11:02.105Z,97082.66
2022-08-17T04:13:30.243Z,97082.75
2022-08-17T04:15:59.190Z,97079.75
2022-08-17T04:18:28.685Z,97086.38
2022-08-17T04:20:56.790Z,97083.16
2022-08-17T04:23:32.941Z,97085.03
2022-08-17T04:26:01.805Z,97084.97
2022-08-17T04:28:30.372Z,97083.84
2022-08-17T04:30:58.504Z,97082.00
2022-08-17T04:33:31.313Z,97071.53
2022-08-17T04:36:01.624Z,97068.63
2022-08-17T04:38:32.141Z,97079.81
2022-08-17T04:41:18.449Z,97078.66
2022-08-17T04:43:49.043Z,97083.91
2022-08-17T04:46:18.581Z,97090.34
2022-08-17T04:48:50.618Z,97097.28
2022-08-17T04:51:22.463Z,97099.41
2022-08-17T04:54:02.624Z,97106.19
2022-08-17T04:56:31.846Z,97101.84
2022-08-17T04:59:03.651Z,97104.94
2022-08-17T05:01:34.906Z,97105.88
2022-08-17T05:04:33.110Z,97109.88
2022-08-17T05:06:55.690Z,97111.72
2022-08-17T05:09:24.366Z,97102.91
2022-08-17T05:11:52.231Z,97108.06
2022-08-17T05:14:32.463Z,97103.44
2022-08-17T05:17:01.711Z,97105.34
2022-08-17T05:19:36.559Z,97113.63
2022-08-17T05:22:06.044Z,97116.41
2022-08-17T05:24:38.407Z,97113.38
2022-08-17T05:27:17.796Z,97119.31
2022-08-17T05:29:47.210Z,97120.28
2022-08-17T05:32:39.055Z,97120.44
2022-08-17T05:35:10.452Z,97109.16
2022-08-17T05:37:38.989Z,97113.44
2022-08-17T05:40:08.682Z,97122.81
2022-08-17T05:42:36.512Z,97119.97
2022-08-17T05:45:05.281Z,97115.38
2022-08-17T05:47:33.023Z,97119.31
2022-08-17T05:50:02.777Z,97111.09
2022-08-17T05:52:48.920Z,97113.53
2022-08-17T05:55:27.363Z,97110.88
2022-08-17T05:58:07.801Z,97113.31
2022-08-17T06:00:44.911Z,97114.09
2022-08-17T06:03:30.306Z,97122.59
2022-08-17T06:06:13.387Z,97108.19
2022-08-17T06:08:51.771Z,97111.13
2022-08-17T06:11:30.486Z,97109.34
2022-08-17T06:14:14.734Z,97105.13
2022-08-17T06:16:45.931Z,97099.63
2022-08-17T06:19:18.355Z,97103.41
2022-08-17T06:21:49.436Z,97104.38
2022-08-17T06:24:27.417Z,97115.06
2022-08-17T06:26:56.376Z,97109.44
2022-08-17T06:29:37.483Z,97103.97
2022-08-17T06:32:08.592Z,97096.06
2022-08-17T06:34:38.466Z,97102.69
2022-08-17T06:37:15.325Z,97102.09
2022-08-17T06:39:54.358Z,97106.69
2022-08-17T06:42:54.882Z,97110.31
2022-08-17T06:45:26.264Z,97104.91
2022-08-17T06:48:03.119Z,97106.72
2022-08-17T06:50:37.088Z,97106.06
2022-08-17T06:53:21.361Z,97100.78
2022-08-17T06:55:59.763Z,97109.91
2022-08-17T06:58:31.484Z,97099.72
2022-08-17T07:01:05.742Z,97099.22
2022-08-17T07:03:39.466Z,97103.09
2022-08-17T07:06:13.564Z,97095.06
2022-08-17T07:08:52.077Z,97105.13
2022-08-17T07:11:28.682Z,97105.16
2022-08-17T07:14:08.317Z,97107.59
2022-08-17T07:16:42.515Z,97109.84
2022-08-17T07:19:11.209Z,97112.50
2022-08-17T07:21:50.337Z,97112.97
2022-08-17T07:24:35.886Z,97119.00
2022-08-17T07:27:12.566Z,97122.34
2022-08-17T07:29:44.159Z,97116.56
2022-08-17T07:32:18.691Z,97112.16
2022-08-17T07:35:08.499Z,97113.09
2022-08-17T07:37:40.740Z,97108.53
2022-08-17T07:40:21.366Z,97116.00
2022-08-17T07:43:23.102Z,97121.31
2022-08-17T07:46:24.784Z,97117.69
2022-08-17T07:48:54.851Z,97115.91
2022-08-17T07:51:30.083Z,97125.59
2022-08-17T07:54:13.578Z,97125.41
2022-08-17T07:56:47.197Z,97123.44
2022-08-17T07:59:23.175Z,97127.88
2022-08-17T08:02:18.810Z,97126.28
2022-08-17T08:05:01.353Z,97138.63
2022-08-17T08:07:34.921Z,97132.34
2022-08-17T08:10:11.604Z,97135.41
2022-08-17T08:12:41.725Z,97128.47
2022-08-17T08:15:21.389Z,97130.13
2022-08-17T08:17:53.882Z,97129.28
2022-08-17T08:20:53.289Z,97128.84
2022-08-17T08:23:43.023Z,97133.91
2022-08-17T08:26:21.771Z,97128.53
2022-08-17T08:29:13.068Z,97123.41
2022-08-17T08:32:00.185Z,97129.81
2022-08-17T08:35:00.178Z,97137.03
2022-08-17T08:37:49.371Z,97131.19
2022-08-17T08:40:34.590Z,97122.75
2022-08-17T08:43:15.069Z,97122.63
2022-08-17T08:45:50.759Z,97112.06
2022-08-17T08:48:56.493Z,97118.16
2022-08-17T08:51:37.529Z,97118.63
2022-08-17T08:54:16.029Z,97111.75
2022-08-17T08:57:21.882Z,97116.16
2022-08-17T08:59:57.707Z,97116.13
2022-08-17T09:02:40.224Z,97117.94
2022-08-17T09:05:22.692Z,97120.63
2022-08-17T09:08:04.716Z,97120.34
2022-08-17T09:10:40.887Z,97106.88
2022-08-17T09:13:21.158Z,97110.22
2022-08-17T09:15:55.965Z,97106.69
2022-08-17T09:19:01.661Z,97101.47
2022-08-17T09:21:23.021Z,97102.84
2022-08-17T09:24:02.750Z,97106.31
2022-08-17T09:26:35.511Z,97102.22
2022-08-17T09:29:09.986Z,97095.59
2022-08-17T09:31:49.298Z,97095.97
2022-08-17T09:34:26.968Z,97101.03
2022-08-17T09:37:08.558Z,97102.16
2022-08-17T09:39:44.069Z,97100.91
2022-08-17T09:42:22.689Z,97097.25
2022-08-17T09:44:56.706Z,97086.28
2022-08-17T09:47:31.708Z,97080.16
2022-08-17T09:50:07.299Z,97078.69
2022-08-17T09:52:36.639Z,97085.72
2022-08-17T09:55:07.837Z,97072.56
2022-08-17T09:57:51.770Z,97079.78
2022-08-17T10:00:25.439Z,97083.53
2022-08-17T10:03:17.167Z,97075.06
2022-08-17T10:05:56.357Z,97070.72
2022-08-17T10:08:34.936Z,97071.59
2022-08-17T10:11:33.469Z,97068.59
2022-08-17T10:14:36.333Z,97060.31
2022-08-17T10:17:04.766Z,97053.47
2022-08-17T10:19:37.497Z,97064.69
2022-08-17T10:22:34.914Z,97075.63
2022-08-17T10:25:42.861Z,97069.44
2022-08-17T10:28:23.722Z,97069.13
2022-08-17T10:34:01.166Z,97073.69
2022-08-17T10:36:43.225Z,97062.13
2022-08-17T10:39:22.718Z,97058.47
2022-08-17T10:41:57.001Z,97064.66
2022-08-17T10:44:39.319Z,97066.84
2022-08-17T10:47:11.924Z,97065.84
2022-08-17T10:49:47.661Z,97060.31
2022-08-17T10:52:48.954Z,97062.31
2022-08-17T10:55:18.971Z,97061.84
2022-08-17T10:57:50.951Z,97066.88
2022-08-17T11:01:12.707Z,97054.75
2022-08-17T11:03:55.107Z,97057.63
2022-08-17T11:06:32.858Z,97053.03
2022-08-17T11:09:28.880Z,97052.13
2022-08-17T11:12:12.927Z,97052.22
2022-08-17T11:15:05.076Z,97055.34
2022-08-17T11:17:54.054Z,97058.19
2022-08-17T11:20:40.863Z,97052.31
2022-08-17T11:23:22.187Z,97047.44
2022-08-17T11:25:54.156Z,97046.13
2022-08-17T11:28:26.093Z,97055.94
2022-08-17T11:30:58.834Z,97051.00
2022-08-17T11:34:04.854Z,97053.13
2022-08-17T11:37:12.350Z,97056.50
2022-08-17T11:40:07.325Z,97057.25
2022-08-17T11:42:48.959Z,97056.91
2022-08-17T11:45:54.403Z,97039.69
2022-08-17T11:48:51.695Z,97044.59
2022-08-17T11:51:42.062Z,97045.06
2022-08-17T11:54:34.171Z,97038.69
2022-08-17T11:57:40.624Z,97039.84
2022-08-17T12:00:11.350Z,97050.50
2022-08-17T12:02:47.084Z,97044.59
2022-08-17T12:05:36.992Z,97046.41
2022-08-17T12:08:22.675Z,97039.38
2022-08-17T12:10:57.966Z,97040.59
2022-08-17T12:13:27.459Z,97044.25
2022-08-17T12:16:07.553Z,97051.75
2022-08-17T12:18:39.458Z,97057.88
2022-08-17T12:21:28.218Z,97054.03
2022-08-17T12:24:06.432Z,97053.63
2022-08-17T12:26:37.006Z,97055.41
2022-08-17T12:29:09.181Z,97049.81
2022-08-17T12:31:44.661Z,97048.53
2022-08-17T12:34:17.141Z,97044.78
2022-08-17T12:36:47.984Z,97037.75
2022-08-17T12:39:21.541Z,97037.91
2022-08-17T12:42:01.953Z,97034.72
2022-08-17T12:44:32.308Z,97037.19
2022-08-17T12:47:04.912Z,97034.91
2022-08-17T12:49:36.007Z,97037.41
2022-08-17T12:52:14.898Z,97039.91
2022-08-17T12:54:49.045Z,97036.59
2022-08-17T12:57:20.284Z,97028.94
2022-08-17T12:59:53.316Z,97027.97
2022-08-17T13:02:31.484Z,97032.72
2022-08-17T13:05:02.259Z,97038.94
2022-08-17T13:07:36.479Z,97030.91
2022-08-17T13:10:05.433Z,97026.81
2022-08-17T13:12:37.014Z,97024.47
2022-08-17T13:15:05.460Z,97018.84
2022-08-17T13:17:36.119Z,97019.13
2022-08-17T13:20:07.046Z,97026.34
2022-08-17T13:22:36.699Z,97024.06
2022-08-17T13:25:09.272Z,97029.00
2022-08-17T13:27:38.607Z,97029.22
2022-08-17T13:30:12.664Z,97031.56
2022-08-17T13:32:45.188Z,97029.00
2022-08-17T13:35:39.201Z,97027.66
2022-08-17T13:38:12.698Z,97025.19
2022-08-17T13:40:45.203Z,97029.22
2022-08-17T13:43:13.433Z,97026.28
2022-08-17T13:45:50.425Z,97026.16
2022-08-17T13:48:27.497Z,97027.16
2022-08-17T13:51:15.122Z,97016.59
2022-08-17T13:53:55.830Z,97015.56
2022-08-17T13:56:38.722Z,97014.69
2022-08-17T13:59:11.342Z,97018.00
2022-08-17T14:01:43.076Z,97013.34
2022-08-17T14:04:13.347Z,97011.47
2022-08-17T14:06:54.216Z,97012.44
2022-08-17T14:09:29.796Z,97008.28
2022-08-17T14:12:02.075Z,97000.16
2022-08-17T14:14:30.790Z,96996.88
2022-08-17T14:16:58.685Z,97004.34
2022-08-17T14:19:26.997Z,97002.38
2022-08-17T14:21:56.890Z,96996.72
2022-08-17T14:24:28.675Z,96997.94
2022-08-17T14:26:57.694Z,96995.56
2022-08-17T14:29:27.945Z,96993.53
2022-08-17T14:31:57.625Z,96992.97
2022-08-17T14:34:26.698Z,96992.84
2022-08-17T14:36:54.465Z,96999.22
2022-08-17T14:39:22.140Z,97001.88
2022-08-17T14:41:53.306Z,97005.78
2022-08-17T14:44:21.115Z,97004.75
2022-08-17T14:46:50.798Z,97002.22
2022-08-17T14:49:20.664Z,96996.47
2022-08-17T14:51:49.156Z,96999.56
2022-08-17T14:54:33.492Z,96986.16
2022-08-17T14:57:22.465Z,96974.59
2022-08-17T14:59:54.895Z,96977.38
2022-08-17T15:02:29.726Z,96983.88
2022-08-17T15:05:03.020Z,96982.84
2022-08-17T15:07:31.354Z,96985.25
2022-08-17T15:10:00.822Z,96976.06
2022-08-17T15:12:34.091Z,96989.66
2022-08-17T15:15:04.661Z,96980.59
2022-08-17T15:17:44.879Z,96985.94
2022-08-17T15:20:15.911Z,96974.63
2022-08-17T15:22:45.348Z,96970.59
2022-08-17T15:25:14.718Z,96973.34
2022-08-17T15:27:44.355Z,96982.47
2022-08-17T15:30:13.674Z,96969.88
2022-08-17T15:32:46.865Z,96977.31
2022-08-17T15:35:28.305Z,96967.88
2022-08-17T15:37:58.369Z,96973.84
2022-08-17T15:40:26.683Z,96973.66
2022-08-17T15:42:57.702Z,96982.47
2022-08-17T15:45:28.677Z,96987.81
2022-08-17T15:47:56.449Z,96980.09
2022-08-17T15:50:24.217Z,96980.16
2022-08-17T15:52:57.925Z,96977.34
2022-08-17T15:55:28.141Z,96981.81
2022-08-17T15:57:57.408Z,96969.41
2022-08-17T16:00:28.619Z,96974.47
2022-08-17T16:03:44.586Z,96970.44
2022-08-17T16:05:46.361Z,96966.13
2022-08-17T16:08:20.039Z,96970.25
2022-08-17T16:10:49.580Z,96975.66
2022-08-17T16:13:19.669Z,96972.47
2022-08-17T16:15:57.305Z,96973.78
2022-08-17T16:18:28.297Z,96984.31
2022-08-17T16:20:56.715Z,96981.72
2022-08-17T16:23:25.342Z,96985.25
2022-08-17T16:25:54.439Z,96982.03
2022-08-17T16:28:36.061Z,96983.88
2022-08-17T16:31:08.073Z,96987.28
2022-08-17T16:33:39.336Z,96984.91
2022-08-17T16:36:08.403Z,96987.28
2022-08-17T16:38:37.093Z,96990.47
2022-08-17T16:41:05.849Z,96991.06
2022-08-17T16:43:36.046Z,96978.09
2022-08-17T16:46:03.764Z,96976.66
2022-08-17T16:48:32.019Z,96982.84
2022-08-17T16:51:03.838Z,96980.25
2022-08-17T16:53:32.621Z,96985.53
2022-08-17T16:56:00.446Z,96991.84
2022-08-17T16:58:28.293Z,96990.03
2022-08-17T17:00:59.393Z,96980.06
2022-08-17T17:03:30.555Z,96975.25
2022-08-17T17:06:08.727Z,96976.59
2022-08-17T17:08:44.404Z,96979.25
2022-08-17T17:11:16.756Z,96980.59
2022-08-17T17:13:50.307Z,96972.59
2022-08-17T17:16:24.346Z,96972.81
2022-08-17T17:19:06.956Z,96979.75
2022-08-17T17:21:44.913Z,96987.66
2022-08-17T17:24:18.791Z,96973.25
2022-08-17T17:26:59.483Z,96983.19
2022-08-17T17:29:48.125Z,96978.22
2022-08-17T17:32:23.134Z,96979.66
2022-08-17T17:34:56.042Z,96974.09
2022-08-17T17:37:28.634Z,96973.69
2022-08-17T17:40:01.076Z,96979.06
2022-08-17T17:42:33.041Z,96977.59
2022-08-17T17:45:08.086Z,96979.19
2022-08-17T17:47:38.335Z,96972.41
2022-08-17T17:50:07.839Z,96976.16
2022-08-17T17:52:47.710Z,96973.00
2022-08-17T17:55:25.908Z,96966.97
2022-08-17T17:58:04.593Z,96974.94
2022-08-17T18:00:39.448Z,96970.31
2022-08-17T18:03:26.814Z,96971.97
2022-08-17T18:06:12.563Z,96961.88
2022-08-17T18:08:56.068Z,96972.25
2022-08-17T18:11:46.976Z,96971.31
2022-08-17T18:14:37.568Z,96967.28
2022-08-17T18:17:07.175Z,96969.97
2022-08-17T18:19:38.862Z,96970.22
2022-08-17T18:22:14.399Z,96966.81
2022-08-17T18:24:44.417Z,96962.25
2022-08-17T18:27:23.453Z,96963.13
2022-08-17T18:29:52.799Z,96959.78
2022-08-17T18:32:27.887Z,96969.81
2022-08-17T18:34:59.468Z,96964.47
2022-08-17T18:37:49.284Z,96970.53
2022-08-17T18:40:37.654Z,96970.31
2022-08-17T18:43:14.249Z,96973.16
2022-08-17T18:45:46.929Z,96968.56
2022-08-17T18:48:36.480Z,96968.44
2022-08-17T18:51:37.269Z,96972.09
2022-08-17T18:54:16.466Z,96971.09
2022-08-17T18:56:49.290Z,96977.97
2022-08-17T18:59:28.310Z,96980.03
2022-08-17T19:02:27.208Z,96977.84
2022-08-17T19:05:09.693Z,96981.59
2022-08-17T19:07:42.179Z,96987.16
2022-08-17T19:10:22.443Z,96984.09
2022-08-17T19:13:00.393Z,96974.63
2022-08-17T19:15:34.579Z,96982.19
2022-08-17T19:18:15.135Z,96987.00
2022-08-17T19:20:48.941Z,96990.13
2022-08-17T19:23:26.281Z,96988.91
2022-08-17T19:25:58.649Z,96978.59
2022-08-17T19:28:31.078Z,96981.34
2022-08-17T19:31:03.972Z,96985.34
2022-08-17T19:33:32.626Z,96992.59
2022-08-17T19:36:07.348Z,96989.59
2022-08-17T19:38:45.084Z,96983.34
2022-08-17T19:41:22.065Z,96988.91
2022-08-17T19:44:07.749Z,96983.81
2022-08-17T19:46:49.876Z,96986.19
2022-08-17T19:49:33.247Z,96990.94
2022-08-17T19:52:27.325Z,96991.66
2022-08-17T19:55:01.587Z,96987.81
2022-08-17T19:57:44.085Z,96983.84
2022-08-17T20:00:16.416Z,96986.25
2022-08-17T20:02:52.649Z,96988.31
2022-08-17T20:05:24.953Z,96980.03
2022-08-17T20:07:59.004Z,96984.41
2022-08-17T20:10:39.637Z,96986.09
2022-08-17T20:13:11.902Z,96997.09
2022-08-17T20:15:43.170Z,96987.63
2022-08-17T20:18:20.865Z,96990.81
2022-08-17T20:20:57.384Z,96987.19
2022-08-17T20:23:44.735Z,96982.53
2022-08-17T20:26:21.944Z,96994.03
2022-08-17T20:29:37.008Z,96990.81
2022-08-17T20:32:27.747Z,96990.09
2022-08-17T20:35:08.872Z,96985.72
2022-08-17T20:37:43.066Z,96990.53
2022-08-17T20:40:36.673Z,96991.72
2022-08-17T20:43:48.073Z,96998.03
2022-08-17T20:46:47.564Z,97000.03
2022-08-17T20:49:24.385Z,97001.59
2022-08-17T20:52:01.757Z,96991.38
2022-08-17T20:54:50.080Z,96998.47
2022-08-17T20:57:48.442Z,97006.00
2022-08-17T21:00:44.706Z,97006.00
2022-08-17T21:03:51.288Z,97000.47
2022-08-17T21:06:23.347Z,97009.94
2022-08-17T21:08:54.838Z,97005.59
2022-08-17T21:11:56.975Z,96994.50
2022-08-17T21:14:44.398Z,97001.97
2022-08-17T21:17:40.731Z,97016.22
2022-08-17T21:20:32.218Z,97008.34
2022-08-17T21:23:35.455Z,97007.56
2022-08-17T21:26:17.662Z,97014.66
2022-08-17T21:29:31.779Z,97020.97
2022-08-17T21:32:18.495Z,97022.53
2022-08-17T21:35:28.428Z,97023.31
2022-08-17T21:38:03.197Z,97018.97
2022-08-17T21:40:33.549Z,97017.75
2022-08-17T21:43:09.334Z,97020.84
2022-08-17T21:45:39.446Z,97017.69
2022-08-17T21:48:13.045Z,97022.78
2022-08-17T21:50:47.515Z,97022.38
2022-08-17T21:53:28.090Z,97019.22
2022-08-17T21:55:58.643Z,97012.13
2022-08-17T21:58:32.460Z,97013.28
2022-08-17T22:01:22.886Z,97015.28
2022-08-17T22:04:01.531Z,97018.41
2022-08-17T22:06:36.603Z,97012.88
2022-08-17T22:09:15.812Z,97009.66
2022-08-17T22:11:52.656Z,97011.66
2022-08-17T22:14:22.700Z,97012.38
2022-08-17T22:17:07.803Z,97020.97
2022-08-17T22:19:36.270Z,97020.44
2022-08-17T22:22:07.648Z,97014.91
2022-08-17T22:24:36.791Z,97014.03
2022-08-17T22:27:10.395Z,97019.84
2022-08-17T22:29:57.095Z,97018.28
2022-08-17T22:32:42.659Z,97017.06
2022-08-17T22:35:37.976Z,97017.13
2022-08-17T22:38:35.302Z,97021.78
2022-08-17T22:41:26.692Z,97015.38
2022-08-17T22:43:57.710Z,97011.78
2022-08-17T22:46:26.639Z,97016.50
2022-08-17T22:48:58.169Z,97016.44
2022-08-17T22:51:30.465Z,97024.31
2022-08-17T22:54:21.489Z,97018.69
2022-08-17T22:57:12.882Z,97017.44
2022-08-17T22:59:46.521Z,97017.81
2022-08-17T23:02:22.004Z,97024.13
2022-08-17T23:04:52.398Z,97028.59
2022-08-17T23:07:21.850Z,97016.84
2022-08-17T23:09:53.309Z,97018.06
2022-08-17T23:12:26.762Z,97020.38
2022-08-17T23:15:00.523Z,97012.16
2022-08-17T23:17:33.971Z,97010.63
2022-08-17T23:20:06.490Z,97009.84
2022-08-17T23:22:34.397Z,97010.69
2022-08-17T23:25:06.154Z,97012.94
2022-08-17T23:27:33.928Z,97006.25
2022-08-17T23:30:01.665Z,97009.38
2022-08-17T23:32:29.759Z,97010.13
2022-08-17T23:34:59.073Z,97022.69
2022-08-17T23:37:28.773Z,97017.63
2022-08-17T23:39:56.539Z,97018.38
2022-08-17T23:42:26.080Z,97015.63
2022-08-17T23:44:54.015Z,97022.31
2022-08-17T23:47:21.789Z,97016.84
2022-08-17T23:49:49.529Z,97022.31
2022-08-17T23:52:22.728Z,97021.94
2022-08-17T23:54:50.833Z,97009.72
2022-08-17T23:57:33.893Z,97009.38
